Pagina principale
METAR-TAF:

METAR-TAF

Aeroporti :

Aeroporto di Verona-Villafranca

Verona, Italia

latitudine: 45-23N, longitudine: 010-52E, altezza: 67 m

Osservazione

Il bollettino è stato emesso 31 minuti fa, alle 16:50 UTC
Vento 4 kt da sud, variando fra est/sud-est e sud/sud-ovest
Temperature 22°C
Umidità 43%
Pressione 1014 hPa
Visibilità 10 km o più

METAR: LIPX 311650Z AUTO 17004KT 120V210 9999 NCD 22/09 Q1014

Ora: 19:21 (17:21 UTC)

Previsione

Il bollettino è stato emesso 3 ore e 21 minuti fa, alle 14:00 UTC
Previsione valida dal 31 alle 15 UTC al 31 alle 24 UTC
Vento 5 kt da direzioni variabili
Visibilità 10 km o più
Nubi sparse ad un'altezza di 5000 ft

TAF: LIPX 311400Z 3115/3124 VRB05KT 9999 SCT050

Osservazioni e previsioni meteorologiche di più di 4000 aeroporti (messaggi METAR e TAF).

Le stazioni disponibili sono rappresentate dai dischi gialli e rossi sulla carta.

Puntare il mouse per vedere il nome della stazione.

Clicca sopra per visualizzare le osservazioni e previsioni meteorologiche.

Per cambiare la mappa : fare clic sui pulsanti verdi con una croce nera per ingrandire, il pulsante verde con un trattino per diminuire, o sulla freccia verde per le mappe adiacenti.


METAR-TAF: